Station: Milingimbi

  Atmospheric Gas Attenuation - ITU Rec 676-11   --------------- db/100km ---------------
Date Time Temp RH % AH g/m3 Dew Point Wind Direction Speed kph Gust kph Barometer mB Rainfall Since 9am 24GHz 47GHz 76GHz 122GHz 134GHz 241GHz
11 22:50 25.8 94 22.63 24.8 0 0 1011.5 0.6 48.6 46.7 94.0 249.0 280.1 972.9
11 22:40 25.8 93 22.39 24.6 0 0 1011.6 0.6 48.1 46.2 92.8 245.8 276.1 959.1
11 22:30 25.7 92 22.03 24.3 0 0 1011.6 0.6 47.3 45.6 91.1 241.3 270.5 939.7
11 22:20 25.6 92 21.9 24.2 0 0 1011.5 0.6 47.1 45.3 90.6 239.8 268.7 933.5
11 22:10 25.7 92 22.03 24.3 0 0 1011.3 0.6 47.4 45.5 91.1 241.2 270.5 939.6
11 22:00 25.7 91 21.79 24.1 0 0 1011.3 0.6 46.8 45.1 89.9 238.0 266.5 925.9
11 21:50 25.8 91 21.91 24.2 0 0 1011.4 0.6 47.1 45.2 90.4 239.3 268.1 931.5
11 21:40 25.9 91 22.03 24.3 6 6 1011.4 0.6 47.3 45.4 90.9 240.6 269.7 937.1
11 21:30 25.9 90 21.79 24.1 2 7 1011.3 0.6 46.8 44.9 89.7 237.4 265.8 923.4
11 21:20 26 88 21.42 23.9 6 7 1011.2 0.6 46.0 44.1 87.7 232.1 259.4 901.3
11 21:10 26.3 87 21.54 24 6 6 1011 0.6 46.2 44.2 87.9 232.7 260.3 904.3
11 21:00 26.4 84 20.91 23.5 7 11 1010.9 0.6 44.9 42.9 84.7 224.2 249.8 868.0
11 20:50 26.5 85 21.28 23.8 9 11 1010.9 0.6 45.7 43.6 86.4 228.7 255.4 887.3
11 20:40 26.5 85 21.28 23.8 6 7 1010.9 0.6 45.7 43.6 86.4 228.7 255.4 887.3
11 20:30 26.6 89 22.4 24.6 7 9 1010.9 0.6 48.0 45.8 91.8 243.2 273.1 949.0
11 20:20 26.4 89 22.16 24.4 7 7 1010.7 0.6 47.5 45.4 90.9 240.6 269.9 937.8
11 20:10 26.3 89 22.03 24.3 7 9 1010.5 0.6 47.3 45.2 90.3 239.1 268.1 931.5
11 20:00 26.1 88 21.54 24 9 17 1010.4 0.6 46.3 44.3 88.1 233.3 260.9 906.3
11 19:50 26.3 85 21.04 23.6 13 17 1010.3 0.6 45.2 43.2 85.4 226.1 252.1 876.0
11 19:40 27.5 76 20.11 22.9 15 20 1010 0 43.1 40.8 79.6 210.7 233.7 812.0
11 19:30 28.2 72 19.8 22.7 22 28 1010.2 0 42.3 39.9 77.5 205.0 226.8 788.3
11 19:20 28.8 74 21.03 23.7 4 7 1009.5 0 44.9 41.9 82.5 218.5 243.5 846.4
11 19:10 28.8 73 20.74 23.5 6 6 1009.1 0 44.3 41.3 81.1 214.8 239.0 830.8
11 19:00 28.9 72 20.57 23.3 2 6 1009 0 43.9 40.9 80.2 212.4 236.1 820.7
11 18:50 29 71 20.4 23.2 0 2 1008.9 0 43.5 40.6 79.3 210.0 233.2 810.6
11 18:40 29.2 70 20.33 23.2 6 6 1009 0 43.3 40.3 78.8 208.6 231.5 804.9
11 18:30 29.5 69 20.37 23.2 7 11 1008.9 0 43.4 40.3 78.7 208.3 231.2 803.7
11 18:20 29.8 68 20.4 23.3 7 7 1008.8 0 43.4 40.2 78.5 207.8 230.7 802.1
11 18:10 29.9 67 20.21 23.3 7 9 1008.7 0 43.0 39.8 77.5 205.2 227.6 791.2
11 18:00 30 67 20.32 23.2 9 13 1008.5 0 43.2 39.9 77.9 206.2 228.9 795.7
11 17:50 30.5 66 20.57 23.4 7 11 1008.4 0 43.7 40.1 78.5 207.9 231.0 803.3
11 17:40 30.5 66 20.57 23.4 7 9 1008.2 0 43.7 40.1 78.5 207.8 231.0 803.2
11 17:30 30.6 65 20.36 23.3 9 13 1008.2 0 43.3 39.7 77.5 205.0 227.6 791.3
11 17:20 30.7 65 20.47 23.4 11 15 1008.2 0 43.5 39.8 77.8 206.1 228.9 795.9
11 17:10 31.1 64 20.6 23.5 9 11 1008.1 0 43.7 39.9 78.0 206.6 229.6 798.4
11 17:00 31 62 19.85 22.9 11 17 1008.1 0 42.1 38.6 74.8 197.9 219.0 761.4
11 16:50 30.9 64 20.38 23.3 11 15 1008.1 0 43.3 39.6 77.2 204.5 227.0 789.2
11 16:40 31 63 20.17 23.1 15 19 1008 0 42.8 39.1 76.2 201.7 223.6 777.5
11 16:30 32.1 60 20.37 23.6 11 17 1007.9 0 43.1 39.0 76.0 201.2 223.2 776.4
11 16:20 32 58 19.59 22.7 11 15 1007.8 0 41.5 37.7 72.7 192.3 212.4 738.6
11 16:10 32.1 59 20.03 23.3 11 15 1007.8 0 42.4 38.4 74.5 197.2 218.3 759.4
11 16:00 32.1 60 20.37 23.6 11 15 1007.8 0 43.1 39.0 76.0 201.1 223.2 776.3
11 15:50 32 60 20.26 23.3 11 15 1007.8 0 42.9 38.8 75.6 200.1 221.9 771.8
11 15:40 31.7 60 19.94 23 13 17 1007.9 0 42.3 38.4 74.5 197.2 218.2 758.9
11 15:30 32 60 20.26 23.3 11 19 1007.9 0 42.9 38.8 75.6 200.1 221.9 771.9
11 15:20 32.4 58 20.01 23.3 9 11 1007.9 0 42.3 38.2 74.1 196.2 217.2 755.5
11 15:10 32.6 57 19.87 23 11 13 1008 0 42.0 37.9 73.3 194.1 214.7 746.7
11 15:00 33 60 21.37 24.2 9 17 1008.1 0 45.1 40.4 79.5 210.6 235.0 817.4
11 14:50 32.7 58 20.33 23.6 9 13 1008.2 0 43.0 38.7 75.2 199.2 221.0 768.5
11 14:40 32.4 58 20.01 23.3 13 15 1008.4 0 42.3 38.2 74.1 196.3 217.3 755.7
11 14:30 32.4 59 20.35 23.4 11 17 1008.5 0 43.0 38.8 75.6 200.2 222.2 772.7
11 14:20 32.8 61 21.49 24.3 11 17 1008.5 0 45.4 40.7 80.3 212.6 237.4 825.9
11 14:10 33 57 20.3 23.6 9 13 1008.6 0 42.9 38.5 74.8 198.1 219.7 764.2
11 14:00 33.2 55 19.79 23.2 9 17 1008.7 0 41.8 37.5 72.4 191.8 212.0 737.4
11 13:50 32.9 57 20.19 23.5 9 11 1008.8 0 42.6 38.4 74.5 197.1 218.5 759.9
11 13:40 32.8 58 20.44 23.7 11 13 1009 0 43.2 38.8 75.7 200.3 222.3 773.4
11 13:30 32.8 57 20.08 23.2 13 15 1009 0 42.4 38.2 74.1 196.2 217.2 755.6
11 13:20 32.8 57 20.08 23.4 11 13 1009.2 0 42.4 38.2 74.1 196.2 217.3 755.7
11 13:10 32.1 59 20.03 23.3 13 19 1009.4 0 42.4 38.5 74.6 197.4 218.6 760.2
11 13:00 32.9 54 19.13 22.4 9 13 1009.5 0 40.4 36.5 70.0 185.2 203.8 708.7
11 12:50 32.2 59 20.14 23.2 7 9 1009.6 0 42.6 38.6 75.0 198.5 219.9 764.8
11 12:40 32.1 57 19.35 22.5 9 11 1009.7 0 41.0 37.3 71.6 189.6 209.0 726.8
11 12:30 32.4 59 20.35 23.6 7 13 1009.9 0 43.0 38.9 75.7 200.4 222.4 773.4
11 12:20 31.8 59 19.71 22.8 2 4 1009.9 0 41.8 38.0 73.5 194.5 215.0 747.5
11 12:10 32.1 57 19.35 22.5 4 7 1010.1 0 41.0 37.3 71.7 189.7 209.1 727.0
11 12:00 32.2 58 19.8 22.9 9 15 1010.2 0 41.9 38.0 73.5 194.6 215.1 748.2
11 11:50 32.1 57 19.35 22.5 9 11 1010.4 0 41.0 37.3 71.7 189.7 209.1 727.2
11 11:40 32.3 56 19.22 22.4 6 7 1010.5 0 40.7 37.0 70.9 187.8 206.8 719.0
11 11:30 32 58 19.59 22.7 6 13 1010.7 0 41.5 37.8 72.8 192.8 212.8 740.1
11 11:20 31.9 58 19.48 22.6 6 9 1010.8 0 41.3 37.6 72.5 191.8 211.5 735.7
11 11:10 31.7 59 19.61 22.7 7 9 1010.8 0 41.6 38.0 73.2 193.8 213.9 744.0
11 11:00 31.4 61 19.95 23.2 11 17 1011 0 42.3 38.7 75.0 198.5 219.7 764.0
11 10:50 31.8 59 19.71 22.8 9 13 1011.1 0 41.8 38.1 73.6 194.7 215.1 748.1
11 10:40 31.3 63 20.49 23.4 11 13 1011.1 0 43.4 39.7 77.5 205.2 227.8 792.3
11 10:30 31.1 64 20.6 23.7 9 13 1011.2 0 43.7 40.0 78.2 207.0 230.1 800.0
11 10:20 31.1 62 19.95 23 13 17 1011.3 0 42.3 38.8 75.3 199.3 220.6 767.1
11 10:10 31.5 63 20.71 23.6 7 11 1011.4 0 43.9 40.0 78.3 207.3 230.5 801.6
11 10:00 30.9 66 21.01 23.8 9 15 1011.4 0 44.6 40.9 80.3 212.6 236.8 823.4
11 09:50 30.8 68 21.53 24.2 13 15 1011.5 0 45.7 41.9 82.8 219.2 244.9 851.6
11 09:40 30.4 67 20.77 23.6 13 15 1011.5 0 44.1 40.7 79.7 211.1 234.8 816.4
11 09:30 30.5 67 20.88 23.7 9 17 1011.5 0 44.3 40.8 80.1 212.1 236.1 821.0
11 09:20 30.3 69 21.27 24 9 11 1011.4 0 45.2 41.6 82.1 217.4 242.6 843.5
11 09:10 30.7 69 21.73 24.4 11 15 1011.3 0 46.1 42.3 83.8 221.9 248.2 863.2
11 09:00 30.4 70 21.7 24.5 7 11 1011.3 0 46.1 42.4 84.0 222.5 248.8 865.0
11 08:50 29.9 71 21.42 24.1 9 13 1011.3 0 45.5 42.1 83.3 220.4 246.2 855.8
11 08:40 29.9 71 21.42 24.1 4 6 1011.4 0 45.5 42.1 83.3 220.4 246.2 855.9
11 08:30 29.5 72 21.25 23.9 4 7 1011.4 0 45.2 42.0 82.9 219.5 244.9 851.4
11 08:20 29.1 72 20.8 23.5 7 7 1011.4 0 44.3 41.4 81.2 215.0 239.3 832.0
11 08:10 28.6 74 20.8 23.5 6 6 1011.2 0 44.4 41.6 81.8 216.4 240.9 837.4
11 08:00 28.1 74 20.24 23.2 6 7 1011.2 0 43.3 40.8 79.7 210.9 234.0 813.1
11 07:50 27.8 77 20.71 23.4 7 7 1011.1 0 44.3 41.8 82.2 217.6 242.1 841.4
11 07:40 27.2 80 20.82 23.4 6 6 1010.9 0 44.6 42.3 83.4 220.7 245.7 853.9
11 07:30 26.7 82 20.76 23.4 6 7 1010.9 0 44.5 42.5 83.6 221.4 246.5 856.3
11 07:20 26.3 85 21.04 23.6 0 0 1010.9 0 45.2 43.2 85.4 226.2 252.2 876.4
11 07:10 25.9 86 20.82 23.4 0 0 1010.8 0 44.7 43.0 84.8 224.5 250.1 868.8
11 07:00 25.7 87 20.83 23.4 0 0 1010.7 0 44.8 43.1 85.1 225.2 250.9 871.6
11 06:50 25.6 87 20.71 23.3 0 0 1010.7 0 44.6 42.9 84.6 224.0 249.3 866.1
11 06:40 25.6 86 20.47 23.1 6 7 1010.6 0 44.0 42.5 83.4 220.8 245.5 852.8
11 06:30 25.6 86 20.47 23.1 2 7 1010.5 0 44.0 42.5 83.4 220.8 245.5 852.7
11 06:20 25.7 86 20.59 23.2 6 6 1010.4 0 44.3 42.6 83.9 222.1 247.0 858.1

Last Refresh: 11-Apr-2021 22:57:33

Bureau of Meteorology